sensor_id;sensor_type;location;lat;lon;timestamp;pressure;altitude;pressure_sealevel;temperature;humidity
52935;BME280;38802;50.198;19.796;2023-12-20T00:00:11;95576.71;;;6.82;54.03
52935;BME280;38802;50.198;19.796;2023-12-20T00:02:59;95577.03;;;6.84;53.80
52935;BME280;38802;50.198;19.796;2023-12-20T00:05:27;95583.72;;;6.85;53.82
52935;BME280;38802;50.198;19.796;2023-12-20T00:07:55;95578.52;;;6.83;54.18
52935;BME280;38802;50.198;19.796;2023-12-20T00:10:23;95574.08;;;6.84;53.98
52935;BME280;38802;50.198;19.796;2023-12-20T00:12:51;95565.75;;;6.87;53.72
52935;BME280;38802;50.198;19.796;2023-12-20T00:15:19;95567.45;;;6.85;53.87
52935;BME280;38802;50.198;19.796;2023-12-20T00:17:47;95559.94;;;6.84;53.89
52935;BME280;38802;50.198;19.796;2023-12-20T00:20:16;95554.29;;;6.83;53.85
52935;BME280;38802;50.198;19.796;2023-12-20T00:22:44;95552.29;;;6.83;53.89
52935;BME280;38802;50.198;19.796;2023-12-20T00:25:12;95549.84;;;6.85;53.48
52935;BME280;38802;50.198;19.796;2023-12-20T00:27:40;95553.19;;;6.84;53.39
52935;BME280;38802;50.198;19.796;2023-12-20T00:30:09;95546.84;;;6.80;53.59
52935;BME280;38802;50.198;19.796;2023-12-20T00:32:38;95546.54;;;6.77;53.87
52935;BME280;38802;50.198;19.796;2023-12-20T00:35:06;95546.59;;;6.72;53.92
52935;BME280;38802;50.198;19.796;2023-12-20T00:37:34;95526.11;;;6.73;53.89
52935;BME280;38802;50.198;19.796;2023-12-20T00:40:02;95525.69;;;6.70;53.72
52935;BME280;38802;50.198;19.796;2023-12-20T00:42:32;95535.58;;;6.67;53.52
52935;BME280;38802;50.198;19.796;2023-12-20T00:45:00;95530.38;;;6.67;53.53
52935;BME280;38802;50.198;19.796;2023-12-20T00:47:28;95533.16;;;6.67;53.49
52935;BME280;38802;50.198;19.796;2023-12-20T00:49:56;95530.81;;;6.62;53.57
52935;BME280;38802;50.198;19.796;2023-12-20T00:52:24;95535.40;;;6.63;53.44
52935;BME280;38802;50.198;19.796;2023-12-20T00:54:53;95531.00;;;6.59;53.61
52935;BME280;38802;50.198;19.796;2023-12-20T00:57:20;95530.93;;;6.60;53.45
52935;BME280;38802;50.198;19.796;2023-12-20T00:59:49;95528.20;;;6.60;53.39
52935;BME280;38802;50.198;19.796;2023-12-20T01:02:17;95519.02;;;6.58;53.44
52935;BME280;38802;50.198;19.796;2023-12-20T01:04:45;95527.50;;;6.57;53.30
52935;BME280;38802;50.198;19.796;2023-12-20T01:07:13;95527.64;;;6.58;53.34
52935;BME280;38802;50.198;19.796;2023-12-20T01:09:41;95525.10;;;6.55;53.04
52935;BME280;38802;50.198;19.796;2023-12-20T01:12:09;95518.38;;;6.55;53.03
52935;BME280;38802;50.198;19.796;2023-12-20T01:14:37;95515.41;;;6.49;53.24
52935;BME280;38802;50.198;19.796;2023-12-20T01:17:07;95510.06;;;6.49;53.19
52935;BME280;38802;50.198;19.796;2023-12-20T01:19:35;95509.69;;;6.45;53.30
52935;BME280;38802;50.198;19.796;2023-12-20T01:22:03;95504.80;;;6.41;53.14
52935;BME280;38802;50.198;19.796;2023-12-20T01:24:32;95498.52;;;6.38;53.30
52935;BME280;38802;50.198;19.796;2023-12-20T01:27:00;95504.61;;;6.39;53.01
52935;BME280;38802;50.198;19.796;2023-12-20T01:29:28;95502.58;;;6.36;53.12
52935;BME280;38802;50.198;19.796;2023-12-20T01:31:56;95491.42;;;6.33;53.01
52935;BME280;38802;50.198;19.796;2023-12-20T01:34:24;95479.68;;;6.33;53.03
52935;BME280;38802;50.198;19.796;2023-12-20T01:36:52;95487.04;;;6.32;52.88
52935;BME280;38802;50.198;19.796;2023-12-20T01:39:20;95475.31;;;6.29;53.09
52935;BME280;38802;50.198;19.796;2023-12-20T01:41:56;95468.73;;;6.26;53.17
52935;BME280;38802;50.198;19.796;2023-12-20T01:44:24;95456.10;;;6.17;53.40
52935;BME280;38802;50.198;19.796;2023-12-20T01:46:52;95457.69;;;6.17;53.45
52935;BME280;38802;50.198;19.796;2023-12-20T01:49:21;95453.39;;;6.10;53.48
52935;BME280;38802;50.198;19.796;2023-12-20T01:51:50;95447.23;;;6.07;53.64
52935;BME280;38802;50.198;19.796;2023-12-20T01:54:19;95441.98;;;6.04;53.62
52935;BME280;38802;50.198;19.796;2023-12-20T01:56:48;95443.84;;;6.02;53.78
52935;BME280;38802;50.198;19.796;2023-12-20T01:59:18;95446.28;;;5.99;53.77
52935;BME280;38802;50.198;19.796;2023-12-20T02:01:48;95437.84;;;5.99;53.55
52935;BME280;38802;50.198;19.796;2023-12-20T02:04:17;95436.48;;;5.99;53.70
52935;BME280;38802;50.198;19.796;2023-12-20T02:06:46;95434.29;;;6.00;53.53
52935;BME280;38802;50.198;19.796;2023-12-20T02:09:15;95433.22;;;5.98;53.40
52935;BME280;38802;50.198;19.796;2023-12-20T02:11:43;95425.50;;;5.95;53.76
52935;BME280;38802;50.198;19.796;2023-12-20T02:14:13;95428.44;;;5.96;53.67
52935;BME280;38802;50.198;19.796;2023-12-20T02:16:43;95426.20;;;6.00;53.46
52935;BME280;38802;50.198;19.796;2023-12-20T02:19:14;95434.95;;;6.01;53.38
52935;BME280;38802;50.198;19.796;2023-12-20T02:21:43;95431.63;;;6.04;53.37
52935;BME280;38802;50.198;19.796;2023-12-20T02:24:12;95433.18;;;6.04;53.31
52935;BME280;38802;50.198;19.796;2023-12-20T02:26:40;95434.05;;;6.01;53.58
52935;BME280;38802;50.198;19.796;2023-12-20T02:29:12;95420.80;;;6.03;53.39
52935;BME280;38802;50.198;19.796;2023-12-20T02:31:40;95420.86;;;6.00;53.36
52935;BME280;38802;50.198;19.796;2023-12-20T02:34:09;95420.95;;;5.97;53.49
52935;BME280;38802;50.198;19.796;2023-12-20T02:36:37;95420.20;;;5.95;53.47
52935;BME280;38802;50.198;19.796;2023-12-20T02:39:05;95419.50;;;5.93;53.70
52935;BME280;38802;50.198;19.796;2023-12-20T02:41:33;95422.87;;;5.92;53.71
52935;BME280;38802;50.198;19.796;2023-12-20T02:44:02;95426.73;;;5.88;53.73
52935;BME280;38802;50.198;19.796;2023-12-20T02:46:30;95423.23;;;5.87;53.82
52935;BME280;38802;50.198;19.796;2023-12-20T02:48:58;95423.95;;;5.84;53.74
52935;BME280;38802;50.198;19.796;2023-12-20T02:51:26;95420.94;;;5.76;53.98
52935;BME280;38802;50.198;19.796;2023-12-20T02:53:54;95424.41;;;5.72;54.17
52935;BME280;38802;50.198;19.796;2023-12-20T02:56:22;95413.79;;;5.73;54.53
52935;BME280;38802;50.198;19.796;2023-12-20T02:58:50;95419.50;;;5.73;54.42
52935;BME280;38802;50.198;19.796;2023-12-20T03:01:17;95424.50;;;5.73;54.44
52935;BME280;38802;50.198;19.796;2023-12-20T03:03:46;95429.02;;;5.76;54.42
52935;BME280;38802;50.198;19.796;2023-12-20T03:06:20;95427.14;;;5.76;54.70
52935;BME280;38802;50.198;19.796;2023-12-20T03:08:48;95431.61;;;5.79;54.67
52935;BME280;38802;50.198;19.796;2023-12-20T03:11:16;95432.45;;;5.81;54.60
52935;BME280;38802;50.198;19.796;2023-12-20T03:13:44;95429.42;;;5.80;54.71
52935;BME280;38802;50.198;19.796;2023-12-20T03:16:13;95429.44;;;5.82;54.70
52935;BME280;38802;50.198;19.796;2023-12-20T03:18:41;95423.88;;;5.83;54.72
52935;BME280;38802;50.198;19.796;2023-12-20T03:21:09;95419.50;;;5.86;54.70
52935;BME280;38802;50.198;19.796;2023-12-20T03:23:37;95419.11;;;5.91;54.61
52935;BME280;38802;50.198;19.796;2023-12-20T03:26:09;95429.33;;;5.91;55.57
52935;BME280;38802;50.198;19.796;2023-12-20T03:28:37;95431.38;;;5.95;57.47
52935;BME280;38802;50.198;19.796;2023-12-20T03:31:05;95434.17;;;5.88;58.38
52935;BME280;38802;50.198;19.796;2023-12-20T03:33:33;95430.50;;;5.86;59.29
52935;BME280;38802;50.198;19.796;2023-12-20T03:36:01;95424.48;;;5.82;59.50
52935;BME280;38802;50.198;19.796;2023-12-20T03:38:29;95425.23;;;5.79;60.34
52935;BME280;38802;50.198;19.796;2023-12-20T03:40:57;95423.45;;;5.73;62.42
52935;BME280;38802;50.198;19.796;2023-12-20T03:43:25;95423.27;;;5.55;62.49
52935;BME280;38802;50.198;19.796;2023-12-20T03:45:53;95415.18;;;5.52;63.45
52935;BME280;38802;50.198;19.796;2023-12-20T03:48:21;95415.38;;;5.43;62.77
52935;BME280;38802;50.198;19.796;2023-12-20T03:50:49;95415.48;;;5.39;62.91
52935;BME280;38802;50.198;19.796;2023-12-20T03:53:17;95415.11;;;5.37;63.05
52935;BME280;38802;50.198;19.796;2023-12-20T03:55:45;95412.08;;;5.34;63.05
52935;BME280;38802;50.198;19.796;2023-12-20T03:58:13;95413.73;;;5.28;63.11
52935;BME280;38802;50.198;19.796;2023-12-20T04:00:41;95410.42;;;5.28;62.85
52935;BME280;38802;50.198;19.796;2023-12-20T04:03:10;95411.21;;;5.20;62.71
52935;BME280;38802;50.198;19.796;2023-12-20T04:05:41;95410.71;;;5.13;63.06
52935;BME280;38802;50.198;19.796;2023-12-20T04:08:09;95419.26;;;5.14;63.06
52935;BME280;38802;50.198;19.796;2023-12-20T04:10:37;95421.04;;;5.11;63.34
52935;BME280;38802;50.198;19.796;2023-12-20T04:13:06;95419.30;;;5.06;63.32
52935;BME280;38802;50.198;19.796;2023-12-20T04:15:34;95420.48;;;5.06;63.82
52935;BME280;38802;50.198;19.796;2023-12-20T04:18:03;95421.88;;;5.01;64.27
52935;BME280;38802;50.198;19.796;2023-12-20T04:20:30;95420.26;;;4.93;65.21
52935;BME280;38802;50.198;19.796;2023-12-20T04:22:58;95422.23;;;4.87;66.07
52935;BME280;38802;50.198;19.796;2023-12-20T04:25:26;95420.59;;;4.79;67.47
52935;BME280;38802;50.198;19.796;2023-12-20T04:27:55;95425.84;;;4.73;68.47
52935;BME280;38802;50.198;19.796;2023-12-20T04:30:23;95423.67;;;4.62;69.46
52935;BME280;38802;50.198;19.796;2023-12-20T04:32:55;95430.98;;;4.56;71.02
52935;BME280;38802;50.198;19.796;2023-12-20T04:35:28;95440.20;;;4.48;71.63
52935;BME280;38802;50.198;19.796;2023-12-20T04:37:56;95437.54;;;4.37;72.69
52935;BME280;38802;50.198;19.796;2023-12-20T04:40:24;95441.52;;;4.31;73.68
52935;BME280;38802;50.198;19.796;2023-12-20T04:42:52;95439.92;;;4.27;74.71
52935;BME280;38802;50.198;19.796;2023-12-20T04:45:20;95432.03;;;4.20;75.26
52935;BME280;38802;50.198;19.796;2023-12-20T04:47:48;95435.31;;;4.12;75.77
52935;BME280;38802;50.198;19.796;2023-12-20T04:50:17;95435.91;;;4.08;77.41
52935;BME280;38802;50.198;19.796;2023-12-20T04:52:45;95434.05;;;4.00;78.14
52935;BME280;38802;50.198;19.796;2023-12-20T04:55:13;95432.21;;;3.92;78.41
52935;BME280;38802;50.198;19.796;2023-12-20T04:57:41;95435.95;;;3.88;79.35
52935;BME280;38802;50.198;19.796;2023-12-20T05:00:11;95433.16;;;3.78;80.00
52935;BME280;38802;50.198;19.796;2023-12-20T05:02:39;95433.17;;;3.73;80.83
52935;BME280;38802;50.198;19.796;2023-12-20T05:05:07;95426.89;;;3.67;81.54
52935;BME280;38802;50.198;19.796;2023-12-20T05:07:36;95427.33;;;3.58;81.78
52935;BME280;38802;50.198;19.796;2023-12-20T05:10:04;95428.88;;;3.51;82.14
52935;BME280;38802;50.198;19.796;2023-12-20T05:12:32;95428.32;;;3.46;82.61
52935;BME280;38802;50.198;19.796;2023-12-20T05:15:00;95426.19;;;3.41;83.94
52935;BME280;38802;50.198;19.796;2023-12-20T05:17:28;95428.66;;;3.35;84.53
52935;BME280;38802;50.198;19.796;2023-12-20T05:19:56;95425.75;;;3.28;85.18
52935;BME280;38802;50.198;19.796;2023-12-20T05:22:24;95426.21;;;3.29;86.41
52935;BME280;38802;50.198;19.796;2023-12-20T05:24:53;95423.56;;;3.19;86.08
52935;BME280;38802;50.198;19.796;2023-12-20T05:27:21;95422.49;;;3.17;86.59
52935;BME280;38802;50.198;19.796;2023-12-20T05:29:49;95420.24;;;3.12;87.41
52935;BME280;38802;50.198;19.796;2023-12-20T05:32:18;95425.61;;;3.07;87.36
52935;BME280;38802;50.198;19.796;2023-12-20T05:34:46;95424.75;;;3.09;88.56
52935;BME280;38802;50.198;19.796;2023-12-20T05:37:14;95427.61;;;2.97;87.82
52935;BME280;38802;50.198;19.796;2023-12-20T05:39:42;95423.34;;;2.99;89.28
52935;BME280;38802;50.198;19.796;2023-12-20T05:42:10;95421.17;;;2.93;89.32
52935;BME280;38802;50.198;19.796;2023-12-20T05:44:38;95422.03;;;2.90;89.83
52935;BME280;38802;50.198;19.796;2023-12-20T05:47:06;95416.60;;;2.84;90.24
52935;BME280;38802;50.198;19.796;2023-12-20T05:49:34;95416.55;;;2.85;90.96
52935;BME280;38802;50.198;19.796;2023-12-20T05:52:02;95410.17;;;2.80;90.98
52935;BME280;38802;50.198;19.796;2023-12-20T05:54:31;95412.11;;;2.77;91.33
52935;BME280;38802;50.198;19.796;2023-12-20T05:56:59;95410.77;;;2.76;91.96
52935;BME280;38802;50.198;19.796;2023-12-20T05:59:27;95406.60;;;2.74;92.39
52935;BME280;38802;50.198;19.796;2023-12-20T06:01:55;95412.46;;;2.71;92.20
52935;BME280;38802;50.198;19.796;2023-12-20T06:04:23;95409.16;;;2.69;92.54
52935;BME280;38802;50.198;19.796;2023-12-20T06:06:51;95416.77;;;2.73;93.19
52935;BME280;38802;50.198;19.796;2023-12-20T06:09:19;95422.45;;;2.71;93.16
52935;BME280;38802;50.198;19.796;2023-12-20T06:11:47;95425.80;;;2.69;93.42
52935;BME280;38802;50.198;19.796;2023-12-20T06:14:15;95431.27;;;2.67;93.16
52935;BME280;38802;50.198;19.796;2023-12-20T06:16:43;95436.88;;;2.65;93.32
52935;BME280;38802;50.198;19.796;2023-12-20T06:19:11;95441.92;;;2.69;94.06
52935;BME280;38802;50.198;19.796;2023-12-20T06:21:39;95437.34;;;2.68;94.47
52935;BME280;38802;50.198;19.796;2023-12-20T06:24:11;95435.61;;;2.64;94.28
52935;BME280;38802;50.198;19.796;2023-12-20T06:26:40;95431.35;;;2.63;94.80
52935;BME280;38802;50.198;19.796;2023-12-20T06:29:07;95430.67;;;2.60;94.79
52935;BME280;38802;50.198;19.796;2023-12-20T06:31:35;95423.33;;;2.59;95.01
52935;BME280;38802;50.198;19.796;2023-12-20T06:34:04;95422.11;;;2.63;95.38
52935;BME280;38802;50.198;19.796;2023-12-20T06:36:32;95421.98;;;2.59;95.50
52935;BME280;38802;50.198;19.796;2023-12-20T06:39:00;95428.61;;;2.57;95.69
52935;BME280;38802;50.198;19.796;2023-12-20T06:41:28;95434.95;;;2.57;95.89
52935;BME280;38802;50.198;19.796;2023-12-20T06:43:56;95431.69;;;2.54;95.91
52935;BME280;38802;50.198;19.796;2023-12-20T06:46:25;95424.41;;;2.50;95.85
52935;BME280;38802;50.198;19.796;2023-12-20T06:48:53;95417.08;;;2.55;96.42
52935;BME280;38802;50.198;19.796;2023-12-20T06:51:21;95419.66;;;2.49;96.33
52935;BME280;38802;50.198;19.796;2023-12-20T06:53:53;95425.06;;;2.48;96.57
52935;BME280;38802;50.198;19.796;2023-12-20T06:56:21;95433.61;;;2.48;96.91
52935;BME280;38802;50.198;19.796;2023-12-20T06:58:49;95436.09;;;2.44;97.11
52935;BME280;38802;50.198;19.796;2023-12-20T07:01:17;95437.47;;;2.44;97.43
52935;BME280;38802;50.198;19.796;2023-12-20T07:03:46;95433.36;;;2.44;97.87
52935;BME280;38802;50.198;19.796;2023-12-20T07:06:14;95429.93;;;2.39;98.00
52935;BME280;38802;50.198;19.796;2023-12-20T07:08:44;95427.98;;;2.40;98.32
52935;BME280;38802;50.198;19.796;2023-12-20T07:11:13;95429.52;;;2.35;98.35
52935;BME280;38802;50.198;19.796;2023-12-20T07:13:41;95431.16;;;2.33;98.47
52935;BME280;38802;50.198;19.796;2023-12-20T07:16:09;95431.16;;;2.33;98.69
52935;BME280;38802;50.198;19.796;2023-12-20T07:18:37;95425.27;;;2.32;99.01
52935;BME280;38802;50.198;19.796;2023-12-20T07:21:05;95431.64;;;2.28;98.80
52935;BME280;38802;50.198;19.796;2023-12-20T07:23:35;95428.25;;;2.33;99.55
52935;BME280;38802;50.198;19.796;2023-12-20T07:26:04;95425.96;;;2.29;99.60
52935;BME280;38802;50.198;19.796;2023-12-20T07:28:32;95433.10;;;2.27;99.73
52935;BME280;38802;50.198;19.796;2023-12-20T07:31:01;95435.63;;;2.25;99.87
52935;BME280;38802;50.198;19.796;2023-12-20T07:33:29;95433.41;;;2.19;99.28
52935;BME280;38802;50.198;19.796;2023-12-20T07:36:06;95432.85;;;2.26;99.95
52935;BME280;38802;50.198;19.796;2023-12-20T07:38:35;95438.24;;;2.27;100.00
52935;BME280;38802;50.198;19.796;2023-12-20T07:41:03;95437.78;;;2.26;100.00
52935;BME280;38802;50.198;19.796;2023-12-20T07:43:32;95438.56;;;2.22;100.00
52935;BME280;38802;50.198;19.796;2023-12-20T07:46:05;95437.67;;;2.19;100.00
52935;BME280;38802;50.198;19.796;2023-12-20T07:48:35;95437.95;;;2.18;100.00
52935;BME280;38802;50.198;19.796;2023-12-20T07:51:04;95439.95;;;2.13;100.00
52935;BME280;38802;50.198;19.796;2023-12-20T07:53:34;95440.05;;;2.17;100.00
52935;BME280;38802;50.198;19.796;2023-12-20T07:56:13;95434.42;;;2.13;100.00
52935;BME280;38802;50.198;19.796;2023-12-20T07:58:41;95435.59;;;2.08;100.00
52935;BME280;38802;50.198;19.796;2023-12-20T08:01:19;95437.17;;;2.05;100.00
52935;BME280;38802;50.198;19.796;2023-12-20T08:03:49;95439.23;;;2.05;100.00
52935;BME280;38802;50.198;19.796;2023-12-20T08:06:19;95437.92;;;2.01;100.00
52935;BME280;38802;50.198;19.796;2023-12-20T08:08:47;95439.69;;;2.01;100.00
52935;BME280;38802;50.198;19.796;2023-12-20T08:11:28;95441.12;;;1.97;100.00
52935;BME280;38802;50.198;19.796;2023-12-20T08:13:57;95441.47;;;1.94;100.00
52935;BME280;38802;50.198;19.796;2023-12-20T08:16:26;95436.68;;;1.94;100.00
52935;BME280;38802;50.198;19.796;2023-12-20T08:18:55;95439.14;;;1.93;100.00
52935;BME280;38802;50.198;19.796;2023-12-20T08:21:23;95439.89;;;1.86;100.00
52935;BME280;38802;50.198;19.796;2023-12-20T08:23:51;95442.33;;;1.85;100.00
52935;BME280;38802;50.198;19.796;2023-12-20T08:26:20;95439.41;;;1.88;100.00
52935;BME280;38802;50.198;19.796;2023-12-20T08:28:49;95441.17;;;1.88;100.00
52935;BME280;38802;50.198;19.796;2023-12-20T08:31:18;95441.98;;;1.83;100.00
52935;BME280;38802;50.198;19.796;2023-12-20T08:33:48;95439.35;;;1.83;100.00
52935;BME280;38802;50.198;19.796;2023-12-20T08:36:18;95441.86;;;1.84;100.00
52935;BME280;38802;50.198;19.796;2023-12-20T08:38:46;95441.02;;;1.84;100.00
52935;BME280;38802;50.198;19.796;2023-12-20T08:41:16;95439.61;;;1.88;100.00
52935;BME280;38802;50.198;19.796;2023-12-20T08:43:45;95441.73;;;1.86;100.00
52935;BME280;38802;50.198;19.796;2023-12-20T08:46:14;95445.03;;;1.83;100.00
52935;BME280;38802;50.198;19.796;2023-12-20T08:48:43;95441.98;;;1.85;100.00
52935;BME280;38802;50.198;19.796;2023-12-20T08:51:13;95440.47;;;1.85;100.00
52935;BME280;38802;50.198;19.796;2023-12-20T08:53:41;95446.45;;;1.85;100.00
52935;BME280;38802;50.198;19.796;2023-12-20T08:56:10;95445.50;;;1.84;100.00
52935;BME280;38802;50.198;19.796;2023-12-20T08:58:38;95448.64;;;1.80;100.00
52935;BME280;38802;50.198;19.796;2023-12-20T09:01:06;95450.23;;;1.79;100.00
52935;BME280;38802;50.198;19.796;2023-12-20T09:03:35;95454.01;;;1.79;100.00
52935;BME280;38802;50.198;19.796;2023-12-20T09:06:03;95448.54;;;1.79;100.00
52935;BME280;38802;50.198;19.796;2023-12-20T09:08:32;95448.64;;;1.77;100.00
52935;BME280;38802;50.198;19.796;2023-12-20T09:11:01;95448.71;;;1.73;100.00
52935;BME280;38802;50.198;19.796;2023-12-20T09:13:29;95448.32;;;1.74;100.00
52935;BME280;38802;50.198;19.796;2023-12-20T09:16:03;95446.31;;;1.73;100.00
52935;BME280;38802;50.198;19.796;2023-12-20T09:18:31;95448.68;;;1.74;100.00
52935;BME280;38802;50.198;19.796;2023-12-20T09:20:59;95439.11;;;1.76;100.00
52935;BME280;38802;50.198;19.796;2023-12-20T09:23:27;95440.41;;;1.72;100.00
52935;BME280;38802;50.198;19.796;2023-12-20T09:25:56;95433.31;;;1.73;100.00
52935;BME280;38802;50.198;19.796;2023-12-20T09:28:25;95433.65;;;1.73;100.00
52935;BME280;38802;50.198;19.796;2023-12-20T09:30:53;95433.47;;;1.73;100.00
52935;BME280;38802;50.198;19.796;2023-12-20T09:33:22;95427.32;;;1.73;100.00
52935;BME280;38802;50.198;19.796;2023-12-20T09:35:50;95430.73;;;1.70;100.00
52935;BME280;38802;50.198;19.796;2023-12-20T09:38:19;95430.80;;;1.69;100.00
52935;BME280;38802;50.198;19.796;2023-12-20T09:40:47;95427.29;;;1.70;100.00
52935;BME280;38802;50.198;19.796;2023-12-20T09:43:19;95426.66;;;1.69;100.00
52935;BME280;38802;50.198;19.796;2023-12-20T09:53:09;95420.05;;;1.74;100.00
52935;BME280;38802;50.198;19.796;2023-12-20T09:55:41;95417.25;;;1.72;100.00
52935;BME280;38802;50.198;19.796;2023-12-20T09:58:10;95416.53;;;1.70;100.00
52935;BME280;38802;50.198;19.796;2023-12-20T10:00:38;95417.60;;;1.72;100.00
52935;BME280;38802;50.198;19.796;2023-12-20T10:03:06;95415.23;;;1.69;100.00
52935;BME280;38802;50.198;19.796;2023-12-20T10:05:38;95409.84;;;1.67;100.00
52935;BME280;38802;50.198;19.796;2023-12-20T10:08:07;95403.38;;;1.69;100.00
52935;BME280;38802;50.198;19.796;2023-12-20T10:10:36;95397.48;;;1.71;100.00
52935;BME280;38802;50.198;19.796;2023-12-20T10:18:45;95397.02;;;1.70;100.00
52935;BME280;38802;50.198;19.796;2023-12-20T10:21:13;95396.35;;;1.70;100.00
52935;BME280;38802;50.198;19.796;2023-12-20T10:23:41;95395.73;;;1.71;100.00
52935;BME280;38802;50.198;19.796;2023-12-20T10:26:10;95400.38;;;1.71;100.00
52935;BME280;38802;50.198;19.796;2023-12-20T10:28:40;95399.30;;;1.72;100.00
52935;BME280;38802;50.198;19.796;2023-12-20T10:31:08;95398.85;;;1.71;100.00
52935;BME280;38802;50.198;19.796;2023-12-20T10:33:36;95396.89;;;1.72;100.00
52935;BME280;38802;50.198;19.796;2023-12-20T10:36:09;95392.02;;;1.73;100.00
52935;BME280;38802;50.198;19.796;2023-12-20T10:38:38;95388.00;;;1.72;100.00
52935;BME280;38802;50.198;19.796;2023-12-20T10:41:11;95387.44;;;1.70;100.00
52935;BME280;38802;50.198;19.796;2023-12-20T10:43:41;95383.05;;;1.69;100.00
52935;BME280;38802;50.198;19.796;2023-12-20T10:46:10;95380.06;;;1.67;100.00
52935;BME280;38802;50.198;19.796;2023-12-20T10:48:39;95378.09;;;1.66;100.00
52935;BME280;38802;50.198;19.796;2023-12-20T10:51:08;95377.48;;;1.65;100.00
52935;BME280;38802;50.198;19.796;2023-12-20T10:53:37;95376.71;;;1.66;100.00
52935;BME280;38802;50.198;19.796;2023-12-20T10:56:09;95376.40;;;1.71;100.00
52935;BME280;38802;50.198;19.796;2023-12-20T10:58:43;95371.85;;;1.73;100.00
52935;BME280;38802;50.198;19.796;2023-12-20T11:01:13;95369.69;;;1.75;100.00
52935;BME280;38802;50.198;19.796;2023-12-20T11:03:50;95366.41;;;1.75;100.00
52935;BME280;38802;50.198;19.796;2023-12-20T11:06:42;95367.66;;;1.80;100.00
52935;BME280;38802;50.198;19.796;2023-12-20T11:15:02;95373.05;;;1.84;100.00
52935;BME280;38802;50.198;19.796;2023-12-20T11:18:16;95367.76;;;1.92;100.00
52935;BME280;38802;50.198;19.796;2023-12-20T11:20:44;95366.59;;;1.94;100.00
52935;BME280;38802;50.198;19.796;2023-12-20T11:23:12;95367.41;;;1.92;100.00
52935;BME280;38802;50.198;19.796;2023-12-20T11:25:55;95364.08;;;1.99;100.00
52935;BME280;38802;50.198;19.796;2023-12-20T11:28:26;95363.38;;;2.02;100.00
52935;BME280;38802;50.198;19.796;2023-12-20T11:30:56;95364.81;;;2.06;100.00
52935;BME280;38802;50.198;19.796;2023-12-20T11:33:45;95363.66;;;2.08;100.00
52935;BME280;38802;50.198;19.796;2023-12-20T11:36:19;95360.25;;;2.10;100.00
52935;BME280;38802;50.198;19.796;2023-12-20T11:38:55;95360.41;;;2.13;100.00
52935;BME280;38802;50.198;19.796;2023-12-20T11:41:25;95356.73;;;2.15;100.00
52935;BME280;38802;50.198;19.796;2023-12-20T11:43:53;95353.50;;;2.20;100.00
52935;BME280;38802;50.198;19.796;2023-12-20T11:46:22;95349.13;;;2.18;100.00
52935;BME280;38802;50.198;19.796;2023-12-20T11:48:51;95353.29;;;2.18;100.00
52935;BME280;38802;50.198;19.796;2023-12-20T11:51:19;95353.32;;;2.20;100.00
52935;BME280;38802;50.198;19.796;2023-12-20T11:53:51;95349.37;;;2.18;100.00
52935;BME280;38802;50.198;19.796;2023-12-20T11:56:21;95344.39;;;2.18;100.00
52935;BME280;38802;50.198;19.796;2023-12-20T11:58:49;95343.45;;;2.16;100.00
52935;BME280;38802;50.198;19.796;2023-12-20T12:01:19;95341.55;;;2.13;100.00
52935;BME280;38802;50.198;19.796;2023-12-20T12:04:05;95338.70;;;2.16;100.00
52935;BME280;38802;50.198;19.796;2023-12-20T12:06:33;95335.37;;;2.14;100.00
52935;BME280;38802;50.198;19.796;2023-12-20T12:09:02;95337.06;;;2.17;100.00
52935;BME280;38802;50.198;19.796;2023-12-20T12:11:32;95340.04;;;2.16;100.00
52935;BME280;38802;50.198;19.796;2023-12-20T12:14:00;95334.59;;;2.15;100.00
52935;BME280;38802;50.198;19.796;2023-12-20T12:16:29;95332.22;;;2.17;100.00
52935;BME280;38802;50.198;19.796;2023-12-20T12:18:58;95328.12;;;2.23;100.00
52935;BME280;38802;50.198;19.796;2023-12-20T12:21:27;95329.20;;;2.22;100.00
52935;BME280;38802;50.198;19.796;2023-12-20T12:24:08;95320.19;;;2.27;100.00
52935;BME280;38802;50.198;19.796;2023-12-20T12:26:36;95322.99;;;2.28;100.00
52935;BME280;38802;50.198;19.796;2023-12-20T12:29:07;95328.23;;;2.27;100.00
52935;BME280;38802;50.198;19.796;2023-12-20T12:31:35;95331.84;;;2.27;100.00
52935;BME280;38802;50.198;19.796;2023-12-20T12:34:03;95334.27;;;2.31;100.00
52935;BME280;38802;50.198;19.796;2023-12-20T12:36:32;95339.48;;;2.28;100.00
52935;BME280;38802;50.198;19.796;2023-12-20T12:39:03;95338.89;;;2.26;100.00
52935;BME280;38802;50.198;19.796;2023-12-20T12:41:32;95337.86;;;2.26;100.00
52935;BME280;38802;50.198;19.796;2023-12-20T12:44:01;95335.27;;;2.27;100.00
52935;BME280;38802;50.198;19.796;2023-12-20T12:46:47;95334.74;;;2.29;100.00
52935;BME280;38802;50.198;19.796;2023-12-20T12:49:18;95337.33;;;2.29;100.00
52935;BME280;38802;50.198;19.796;2023-12-20T12:51:47;95329.91;;;2.28;100.00
52935;BME280;38802;50.198;19.796;2023-12-20T12:54:16;95329.20;;;2.28;100.00
52935;BME280;38802;50.198;19.796;2023-12-20T12:56:44;95333.37;;;2.24;100.00
52935;BME280;38802;50.198;19.796;2023-12-20T12:59:14;95333.91;;;2.29;100.00
52935;BME280;38802;50.198;19.796;2023-12-20T13:01:42;95336.22;;;2.28;100.00
52935;BME280;38802;50.198;19.796;2023-12-20T13:04:11;95338.71;;;2.29;100.00
52935;BME280;38802;50.198;19.796;2023-12-20T13:06:40;95346.11;;;2.26;100.00
52935;BME280;38802;50.198;19.796;2023-12-20T13:09:10;95340.26;;;2.32;100.00
52935;BME280;38802;50.198;19.796;2023-12-20T13:11:38;95341.85;;;2.33;100.00
52935;BME280;38802;50.198;19.796;2023-12-20T13:14:06;95341.09;;;2.32;100.00
52935;BME280;38802;50.198;19.796;2023-12-20T13:16:38;95341.27;;;2.29;100.00
52935;BME280;38802;50.198;19.796;2023-12-20T13:19:06;95341.76;;;2.30;100.00
52935;BME280;38802;50.198;19.796;2023-12-20T13:21:35;95348.45;;;2.30;100.00
52935;BME280;38802;50.198;19.796;2023-12-20T13:24:03;95351.77;;;2.31;100.00